Time;durP1;ratioP1;P1;durP2;ratioP2;P2;SDS_P1;SDS_P2;PMS_P1;PMS_P2;Temp;Humidity;BMP_temperature;BMP_pressure;BME280_temperature;BME280_humidity;BME280_pressure;Samples;Min_cycle;Max_cycle;Signal;HPM_P1;HPM_P2
2022/12/28 00:01:33;;;;;;;7.30;1.45;;;;;;;;;;5006510;28;20037;-91
2022/12/28 00:04:10;;;;;;;;;;;;;;;;;;;;;
2022/12/28 00:06:36;;;;;;;7.32;1.40;;;;;;;;;;5020105;28;20492;-91
2022/12/28 00:09:01;;;;;;;9.40;1.75;;;;;;;;;;5003403;28;20028;-91
2022/12/28 00:11:33;;;;;;;6.43;1.33;;;;;;;;;;5003368;28;20031;-89
2022/12/28 00:14:01;;;;;;;7.13;1.42;;;;;;;;;;4999921;28;20036;-91
2022/12/28 00:16:31;;;;;;;7.35;1.20;;;;;;;;;;4998063;28;20021;-90
2022/12/28 00:18:58;;;;;;;8.40;1.30;;;;;;;;;;5017631;28;20037;-90
2022/12/28 00:21:26;;;;;;;7.22;0.90;;;;;;;;;;5002705;28;20026;-91
2022/12/28 00:23:56;;;;;;;10.25;1.38;;;;;;;;;;5000815;28;20032;-91
2022/12/28 00:26:22;;;;;;;8.68;1.42;;;;;;;;;;5000231;28;20052;-91
2022/12/28 00:28:47;;;;;;;8.05;1.23;;;;;;;;;;5023493;28;20552;-91
2022/12/28 00:31:13;;;;;;;11.30;1.20;;;;;;;;;;5002763;28;20372;-91
2022/12/28 00:33:39;;;;;;;7.03;1.02;;;;;;;;;;5001915;28;20025;-91
2022/12/28 00:36:08;;;;;;;7.43;1.15;;;;;;;;;;5005885;28;20570;-91
2022/12/28 00:38:36;;;;;;;6.75;1.20;;;;;;;;;;5035882;28;20583;-92
2022/12/28 00:41:11;;;;;;;6.53;1.25;;;;;;;;;;5042087;28;20024;-91
2022/12/28 00:43:36;;;;;;;8.32;1.45;;;;;;;;;;5026056;28;20109;-91
2022/12/28 00:46:16;;;;;;;6.70;1.30;;;;;;;;;;5027342;28;20112;-91
2022/12/28 00:48:44;;;;;;;4.13;0.85;;;;;;;;;;5016737;28;20030;-91
2022/12/28 00:51:14;;;;;;;4.53;1.00;;;;;;;;;;5000159;28;20114;-91
2022/12/28 00:53:40;;;;;;;8.43;1.35;;;;;;;;;;5000773;28;20036;-91
2022/12/28 00:56:06;;;;;;;9.40;1.20;;;;;;;;;;5003289;28;20402;-91
2022/12/28 00:58:32;;;;;;;6.97;1.10;;;;;;;;;;5003304;28;20025;-92
2022/12/28 01:00:58;;;;;;;8.00;1.30;;;;;;;;;;4999580;28;20032;-91
2022/12/28 01:03:23;;;;;;;8.20;1.45;;;;;;;;;;5019692;28;20042;-90
2022/12/28 01:05:52;;;;;;;8.15;1.50;;;;;;;;;;5004842;28;20040;-92
2022/12/28 01:08:17;;;;;;;6.90;1.27;;;;;;;;;;5019981;28;20029;-91
2022/12/28 01:10:46;;;;;;;7.68;1.13;;;;;;;;;;5001646;28;20508;-91
2022/12/28 01:13:16;;;;;;;8.85;1.50;;;;;;;;;;4997205;28;20045;-91
2022/12/28 01:15:45;;;;;;;6.78;1.38;;;;;;;;;;5008239;28;20028;-90
2022/12/28 01:18:10;;;;;;;8.57;1.17;;;;;;;;;;5017128;28;20156;-93
2022/12/28 01:20:38;;;;;;;7.35;1.10;;;;;;;;;;5014301;28;20132;-92
2022/12/28 01:23:04;;;;;;;8.77;1.30;;;;;;;;;;5003578;28;20028;-92
2022/12/28 01:25:31;;;;;;;12.18;1.63;;;;;;;;;;4995349;28;20041;-91
2022/12/28 01:27:59;;;;;;;10.95;1.58;;;;;;;;;;5015788;28;20116;-90
2022/12/28 01:30:24;;;;;;;9.55;1.65;;;;;;;;;;4998858;28;20059;-92
2022/12/28 01:32:52;;;;;;;11.30;1.90;;;;;;;;;;4998777;28;20021;-91
2022/12/28 01:35:18;;;;;;;9.88;1.45;;;;;;;;;;4997721;28;20421;-90
2022/12/28 01:37:43;;;;;;;11.20;1.42;;;;;;;;;;5001618;28;20565;-90
2022/12/28 01:40:09;;;;;;;8.10;1.38;;;;;;;;;;4996654;28;20083;-91
2022/12/28 01:42:41;;;;;;;11.57;1.60;;;;;;;;;;5003042;28;20037;-92
2022/12/28 01:45:17;;;;;;;10.02;1.58;;;;;;;;;;4997440;28;20132;-91
2022/12/28 01:47:47;;;;;;;14.68;1.80;;;;;;;;;;5014585;28;20036;-91
2022/12/28 01:50:15;;;;;;;9.70;1.55;;;;;;;;;;5005790;28;20035;-91
2022/12/28 01:52:43;;;;;;;13.35;1.40;;;;;;;;;;5015079;28;20021;-91
2022/12/28 01:55:25;;;;;;;12.40;1.60;;;;;;;;;;5030258;28;20028;-91
2022/12/28 01:58:17;;;;;;;8.82;1.50;;;;;;;;;;5028729;28;20035;-92
2022/12/28 02:00:46;;;;;;;10.10;1.60;;;;;;;;;;5023075;28;20060;-92
2022/12/28 02:03:22;;;;;;;7.68;1.20;;;;;;;;;;5007562;28;20057;-92
2022/12/28 02:05:54;;;;;;;14.95;1.65;;;;;;;;;;5003443;28;20093;-91
2022/12/28 02:08:22;;;;;;;10.25;1.73;;;;;;;;;;4996757;28;20083;-91
2022/12/28 02:10:48;;;;;;;9.52;1.50;;;;;;;;;;5008375;28;20788;-92
2022/12/28 02:13:19;;;;;;;13.32;2.00;;;;;;;;;;4999966;28;20744;-91
2022/12/28 02:15:53;;;;;;;9.98;1.52;;;;;;;;;;4969312;28;20062;-92
2022/12/28 02:18:24;;;;;;;8.68;1.80;;;;;;;;;;4971370;28;20186;-91
2022/12/28 02:21:01;;;;;;;16.83;2.25;;;;;;;;;;4970588;28;20042;-91
2022/12/28 02:23:27;;;;;;;9.15;1.48;;;;;;;;;;4963935;28;20026;-91
2022/12/28 02:25:55;;;;;;;10.38;1.50;;;;;;;;;;4977532;28;20061;-92
2022/12/28 02:28:48;;;;;;;12.23;1.63;;;;;;;;;;4965769;28;20031;-91
2022/12/28 02:31:25;;;;;;;15.67;1.80;;;;;;;;;;4973181;28;20043;-91
2022/12/28 02:34:16;;;;;;;15.55;2.50;;;;;;;;;;4975258;28;20019;-92
2022/12/28 02:36:48;;;;;;;14.23;2.05;;;;;;;;;;4959941;28;20343;-91
2022/12/28 02:39:16;;;;;;;13.48;2.30;;;;;;;;;;4972172;28;20133;-92
2022/12/28 02:41:42;;;;;;;16.88;1.95;;;;;;;;;;4970801;28;20090;-91
2022/12/28 02:44:08;;;;;;;14.45;1.60;;;;;;;;;;4964129;28;20065;-91
2022/12/28 02:52:14;;;;;;;13.60;2.22;;;;;;;;;;5014120;28;20274;-91
2022/12/28 02:57:31;;;;;;;9.65;1.27;;;;;;;;;;5031477;28;20043;-91
2022/12/28 03:03:07;;;;;;;11.85;2.05;;;;;;;;;;5415048;23;20045;-93
2022/12/28 03:08:32;;;;;;;10.20;1.90;;;;;;;;;;5036977;28;20084;-93
2022/12/28 03:11:10;;;;;;;15.20;2.00;;;;;;;;;;5019057;28;20032;-94
2022/12/28 03:13:42;;;;;;;11.13;1.75;;;;;;;;;;5004366;28;20025;-93
2022/12/28 03:16:10;;;;;;;11.50;1.60;;;;;;;;;;4994426;28;20062;-94
2022/12/28 03:32:23;;;;;;;11.68;1.70;;;;;;;;;;5015155;28;20519;-94
2022/12/28 03:34:48;;;;;;;11.00;1.77;;;;;;;;;;4999335;28;20018;-93
2022/12/28 03:37:24;;;;;;;13.88;1.70;;;;;;;;;;5012591;28;20434;-92
2022/12/28 03:40:09;;;;;;;12.18;1.75;;;;;;;;;;5014133;28;20021;-94
2022/12/28 03:45:42;;;;;;;9.23;1.70;;;;;;;;;;5015823;28;20041;-94
2022/12/28 03:48:08;;;;;;;10.85;1.60;;;;;;;;;;5000252;28;20439;-94
2022/12/28 03:50:35;;;;;;;13.55;1.58;;;;;;;;;;5016219;28;20030;-92
2022/12/28 03:53:00;;;;;;;8.32;1.63;;;;;;;;;;4996743;28;20096;-94
2022/12/28 03:55:26;;;;;;;15.80;2.33;;;;;;;;;;4999746;28;20595;-94
2022/12/28 03:57:55;;;;;;;14.13;1.65;;;;;;;;;;4995168;28;20030;-94
2022/12/28 04:00:20;;;;;;;16.65;1.98;;;;;;;;;;5014682;28;20049;-93
2022/12/28 04:02:45;;;;;;;9.80;1.95;;;;;;;;;;5014027;28;20100;-93
2022/12/28 04:05:11;;;;;;;13.27;1.88;;;;;;;;;;4993602;28;20041;-93
2022/12/28 04:07:36;;;;;;;9.05;1.67;;;;;;;;;;4999291;28;20452;-93
2022/12/28 04:10:01;;;;;;;12.77;1.70;;;;;;;;;;5022138;28;20097;-92
2022/12/28 04:12:26;;;;;;;11.52;1.58;;;;;;;;;;5001040;28;21052;-93
2022/12/28 04:14:51;;;;;;;13.35;1.70;;;;;;;;;;5002405;28;20033;-92
2022/12/28 04:17:17;;;;;;;11.90;1.70;;;;;;;;;;4994637;28;20476;-93
2022/12/28 04:19:42;;;;;;;12.57;1.80;;;;;;;;;;5002585;28;20652;-93
2022/12/28 04:22:07;;;;;;;15.67;1.90;;;;;;;;;;4999758;28;20098;-93
2022/12/28 04:24:32;;;;;;;10.90;1.50;;;;;;;;;;4995502;28;20525;-93
2022/12/28 04:26:58;;;;;;;7.93;1.48;;;;;;;;;;5000362;28;20021;-92
2022/12/28 04:29:23;;;;;;;11.60;1.55;;;;;;;;;;4998106;28;20149;-92
2022/12/28 04:31:48;;;;;;;10.02;1.52;;;;;;;;;;4998155;28;20033;-94
2022/12/28 04:34:14;;;;;;;11.63;1.55;;;;;;;;;;5017264;28;20057;-94
2022/12/28 04:36:39;;;;;;;11.30;1.52;;;;;;;;;;5001176;28;20593;-93
2022/12/28 04:39:05;;;;;;;11.93;1.83;;;;;;;;;;5005709;28;20084;-93
2022/12/28 04:41:30;;;;;;;10.98;1.50;;;;;;;;;;5007067;28;20033;-93
2022/12/28 04:43:55;;;;;;;10.50;1.58;;;;;;;;;;5020728;28;20098;-93
2022/12/28 04:46:22;;;;;;;11.07;1.70;;;;;;;;;;5008990;28;20041;-92
2022/12/28 04:48:49;;;;;;;11.05;1.70;;;;;;;;;;5015958;28;20025;-92
2022/12/28 04:51:18;;;;;;;7.70;1.27;;;;;;;;;;5001304;28;20052;-92
2022/12/28 04:53:44;;;;;;;11.90;1.60;;;;;;;;;;5005648;28;20056;-93
2022/12/28 04:56:10;;;;;;;9.57;1.58;;;;;;;;;;5017634;28;20053;-93
2022/12/28 04:58:36;;;;;;;10.70;1.95;;;;;;;;;;4998373;28;20029;-93
2022/12/28 05:01:02;;;;;;;12.27;1.90;;;;;;;;;;4999660;28;20022;-93
2022/12/28 05:03:27;;;;;;;16.38;2.03;;;;;;;;;;5005074;28;20041;-93
2022/12/28 05:05:53;;;;;;;11.77;1.70;;;;;;;;;;5007074;28;20801;-93
2022/12/28 05:08:18;;;;;;;9.77;1.90;;;;;;;;;;5000082;28;20876;-93
2022/12/28 05:10:43;;;;;;;11.63;2.00;;;;;;;;;;5004697;28;20499;-93
2022/12/28 05:13:08;;;;;;;12.80;2.73;;;;;;;;;;4997915;28;20367;-93
2022/12/28 05:15:34;;;;;;;10.07;1.93;;;;;;;;;;5023968;28;20335;-94
2022/12/28 05:17:59;;;;;;;14.10;2.57;;;;;;;;;;5003146;28;20300;-94
2022/12/28 05:20:24;;;;;;;9.57;2.20;;;;;;;;;;5002146;28;20321;-93
2022/12/28 05:22:49;;;;;;;22.98;3.17;;;;;;;;;;5027604;28;20262;-93
2022/12/28 05:25:15;;;;;;;11.98;2.88;;;;;;;;;;5002855;28;20038;-93
2022/12/28 05:27:40;;;;;;;12.70;2.38;;;;;;;;;;5000167;28;20022;-94
2022/12/28 05:30:06;;;;;;;20.63;2.80;;;;;;;;;;5014795;28;20029;-92
2022/12/28 05:32:31;;;;;;;15.32;3.65;;;;;;;;;;5043762;28;20065;-93
2022/12/28 05:34:56;;;;;;;12.38;2.60;;;;;;;;;;5020108;28;20144;-93
2022/12/28 05:37:21;;;;;;;12.37;2.10;;;;;;;;;;5004542;28;20113;-94
2022/12/28 05:39:47;;;;;;;14.90;2.43;;;;;;;;;;5009146;28;20262;-93
2022/12/28 05:42:12;;;;;;;15.45;2.50;;;;;;;;;;5023865;28;20305;-93
2022/12/28 05:44:37;;;;;;;15.00;2.20;;;;;;;;;;5047587;28;20014;-93
2022/12/28 05:47:03;;;;;;;13.73;2.40;;;;;;;;;;5031108;28;20021;-93
2022/12/28 05:49:29;;;;;;;14.10;2.30;;;;;;;;;;5001831;28;20288;-93
2022/12/28 05:51:54;;;;;;;12.20;2.15;;;;;;;;;;5015835;28;20029;-93
2022/12/28 05:54:19;;;;;;;13.05;2.15;;;;;;;;;;5011821;28;20618;-93
2022/12/28 05:56:45;;;;;;;14.90;2.25;;;;;;;;;;4995860;28;20018;-92
2022/12/28 05:59:12;;;;;;;14.93;2.72;;;;;;;;;;4996701;28;20152;-93
2022/12/28 06:01:38;;;;;;;14.95;2.38;;;;;;;;;;4998532;28;20061;-93
2022/12/28 06:04:06;;;;;;;16.73;2.40;;;;;;;;;;5000096;28;20100;-93
2022/12/28 06:06:32;;;;;;;13.00;2.50;;;;;;;;;;5000688;28;20032;-93
2022/12/28 06:08:57;;;;;;;12.95;2.60;;;;;;;;;;5015682;28;20224;-93
2022/12/28 06:11:24;;;;;;;16.48;2.88;;;;;;;;;;5000431;28;20036;-93
2022/12/28 06:13:49;;;;;;;13.70;2.55;;;;;;;;;;5016691;28;20420;-93
2022/12/28 06:16:19;;;;;;;12.70;2.28;;;;;;;;;;5018019;28;20111;-92
2022/12/28 06:18:45;;;;;;;12.10;2.47;;;;;;;;;;5015215;28;20018;-93
2022/12/28 06:21:13;;;;;;;15.07;2.47;;;;;;;;;;5002830;28;20397;-93
2022/12/28 06:23:38;;;;;;;11.20;2.05;;;;;;;;;;5016898;28;20076;-93
2022/12/28 06:26:05;;;;;;;13.50;2.50;;;;;;;;;;5021546;28;20489;-93
2022/12/28 06:28:30;;;;;;;15.63;2.35;;;;;;;;;;5002178;28;20037;-93
2022/12/28 06:31:09;;;;;;;12.90;2.30;;;;;;;;;;5001607;28;20022;-92
2022/12/28 06:33:35;;;;;;;14.45;2.65;;;;;;;;;;4999173;28;20034;-94
2022/12/28 06:36:00;;;;;;;13.45;2.40;;;;;;;;;;4998155;28;20032;-94
2022/12/28 06:38:28;;;;;;;15.77;2.60;;;;;;;;;;4996268;28;20495;-93
2022/12/28 06:40:53;;;;;;;9.95;2.05;;;;;;;;;;4998310;28;20033;-92
2022/12/28 06:43:19;;;;;;;13.68;2.13;;;;;;;;;;5020121;28;20029;-93
2022/12/28 06:45:54;;;;;;;12.05;2.05;;;;;;;;;;5016248;28;20017;-93
2022/12/28 06:48:20;;;;;;;13.85;2.42;;;;;;;;;;5005643;28;20026;-93
2022/12/28 06:50:52;;;;;;;11.77;1.80;;;;;;;;;;5006576;28;20056;-93
2022/12/28 06:53:18;;;;;;;10.50;1.90;;;;;;;;;;5005067;28;20302;-94
2022/12/28 06:55:50;;;;;;;7.03;1.67;;;;;;;;;;5017196;28;20485;-94
2022/12/28 06:58:16;;;;;;;9.93;1.83;;;;;;;;;;5004329;28;20041;-93
2022/12/28 07:00:41;;;;;;;8.45;1.65;;;;;;;;;;4998048;28;20030;-94
2022/12/28 07:03:06;;;;;;;12.25;1.70;;;;;;;;;;4991051;28;20056;-92
2022/12/28 07:05:32;;;;;;;6.85;1.45;;;;;;;;;;4974980;28;20026;-93
2022/12/28 07:07:57;;;;;;;9.90;1.90;;;;;;;;;;4994824;28;20048;-93
2022/12/28 07:10:22;;;;;;;9.13;1.50;;;;;;;;;;4977459;28;20098;-93
2022/12/28 07:12:47;;;;;;;9.45;1.70;;;;;;;;;;5000816;28;20321;-94
2022/12/28 07:15:13;;;;;;;8.83;1.30;;;;;;;;;;4980108;28;20125;-94
2022/12/28 07:17:38;;;;;;;9.98;1.80;;;;;;;;;;4986635;28;20406;-94
2022/12/28 07:20:03;;;;;;;8.07;1.35;;;;;;;;;;4996695;28;20470;-94
2022/12/28 07:22:29;;;;;;;11.82;1.95;;;;;;;;;;4980868;28;20079;-93
2022/12/28 07:24:54;;;;;;;10.07;1.88;;;;;;;;;;4975990;28;20065;-93
2022/12/28 07:27:20;;;;;;;8.82;1.80;;;;;;;;;;4972376;28;20033;-93
2022/12/28 07:29:45;;;;;;;10.15;1.50;;;;;;;;;;4981648;28;20045;-93
2022/12/28 07:32:11;;;;;;;10.03;2.17;;;;;;;;;;4980042;28;20026;-92
2022/12/28 07:34:36;;;;;;;10.07;1.70;;;;;;;;;;4979401;28;20294;-93
2022/12/28 07:37:01;;;;;;;9.63;1.80;;;;;;;;;;4978589;28;20026;-93
2022/12/28 07:39:27;;;;;;;14.15;2.03;;;;;;;;;;4997737;28;20069;-92
2022/12/28 07:41:52;;;;;;;14.43;2.07;;;;;;;;;;5001206;28;20035;-92
2022/12/28 07:44:17;;;;;;;8.67;1.97;;;;;;;;;;4992934;28;20264;-94
2022/12/28 07:46:42;;;;;;;9.87;1.90;;;;;;;;;;4996679;28;20271;-93
2022/12/28 07:49:07;;;;;;;11.70;1.90;;;;;;;;;;4996921;28;20330;-93
2022/12/28 07:51:34;;;;;;;10.75;1.98;;;;;;;;;;4975857;28;20104;-93
2022/12/28 07:53:59;;;;;;;11.30;2.13;;;;;;;;;;4985734;28;20009;-94
2022/12/28 07:56:26;;;;;;;12.45;2.17;;;;;;;;;;5012649;28;20022;-93
2022/12/28 07:58:53;;;;;;;9.02;1.35;;;;;;;;;;4998819;28;20045;-93
2022/12/28 08:01:19;;;;;;;11.90;1.50;;;;;;;;;;4983167;28;20044;-92
2022/12/28 08:03:44;;;;;;;11.23;1.70;;;;;;;;;;4954530;28;1160156;-93
2022/12/28 08:06:11;;;;;;;11.50;1.70;;;;;;;;;;5033977;28;20010;-94
2022/12/28 08:08:37;;;;;;;10.07;1.48;;;;;;;;;;5029600;28;20366;-92
2022/12/28 08:11:04;;;;;;;7.53;1.60;;;;;;;;;;5010646;28;20026;-93
2022/12/28 08:13:30;;;;;;;8.05;1.60;;;;;;;;;;5005540;28;20025;-93
2022/12/28 08:15:55;;;;;;;8.80;1.60;;;;;;;;;;5013643;28;20040;-92
2022/12/28 08:18:23;;;;;;;9.77;1.70;;;;;;;;;;5005367;28;20021;-93
2022/12/28 08:20:48;;;;;;;12.23;1.83;;;;;;;;;;5017767;28;20157;-93
2022/12/28 08:23:14;;;;;;;11.82;1.92;;;;;;;;;;5004834;28;20528;-93
2022/12/28 08:25:39;;;;;;;12.18;2.35;;;;;;;;;;5006420;28;20033;-93
2022/12/28 08:28:04;;;;;;;9.25;1.88;;;;;;;;;;5005169;28;20026;-94
2022/12/28 08:30:29;;;;;;;8.80;1.90;;;;;;;;;;5007823;28;20029;-92
2022/12/28 08:32:55;;;;;;;6.80;1.40;;;;;;;;;;5000236;28;20294;-93
2022/12/28 08:35:20;;;;;;;6.40;1.60;;;;;;;;;;5028012;28;20746;-94
2022/12/28 08:37:45;;;;;;;6.20;1.43;;;;;;;;;;5018639;28;20053;-93
2022/12/28 08:40:11;;;;;;;7.82;1.98;;;;;;;;;;5018383;28;20577;-93
2022/12/28 08:42:36;;;;;;;10.30;1.95;;;;;;;;;;5022385;28;20029;-93
2022/12/28 08:45:01;;;;;;;9.88;2.22;;;;;;;;;;5027460;28;20385;-94
2022/12/28 08:47:26;;;;;;;8.10;2.15;;;;;;;;;;4999228;28;20106;-92
2022/12/28 08:49:51;;;;;;;11.13;2.33;;;;;;;;;;4997104;28;20492;-93
2022/12/28 08:52:17;;;;;;;8.67;2.27;;;;;;;;;;5005630;28;20286;-93
2022/12/28 08:54:42;;;;;;;9.60;2.23;;;;;;;;;;5026397;28;20353;-92
2022/12/28 08:57:07;;;;;;;11.75;2.60;;;;;;;;;;5014131;28;20497;-92
2022/12/28 08:59:32;;;;;;;7.63;2.00;;;;;;;;;;5012785;28;20112;-95
2022/12/28 09:01:58;;;;;;;8.03;1.97;;;;;;;;;;4999584;28;20283;-94
2022/12/28 09:04:23;;;;;;;9.10;2.28;;;;;;;;;;4981629;28;20296;-94
2022/12/28 09:06:48;;;;;;;7.20;2.13;;;;;;;;;;4984882;28;20058;-94
2022/12/28 09:09:14;;;;;;;10.98;2.88;;;;;;;;;;4982435;28;20673;-95
2022/12/28 09:11:40;;;;;;;7.63;2.55;;;;;;;;;;4981928;28;20037;-93
2022/12/28 09:14:06;;;;;;;8.07;2.50;;;;;;;;;;4997350;28;20041;-94
2022/12/28 09:16:32;;;;;;;12.05;3.25;;;;;;;;;;4993876;28;20022;-94
2022/12/28 09:18:58;;;;;;;11.80;3.13;;;;;;;;;;4997535;28;20025;-94
2022/12/28 09:21:25;;;;;;;13.45;2.95;;;;;;;;;;4975844;28;20026;-94
2022/12/28 09:23:50;;;;;;;16.38;3.42;;;;;;;;;;4995389;28;20034;-94
2022/12/28 09:26:16;;;;;;;10.82;3.03;;;;;;;;;;4978206;28;20084;-95
2022/12/28 09:28:50;;;;;;;21.05;3.60;;;;;;;;;;4977039;28;20024;-93
2022/12/28 09:31:17;;;;;;;12.65;3.55;;;;;;;;;;4980515;28;20021;-93
2022/12/28 09:34:01;;;;;;;15.40;3.22;;;;;;;;;;4975423;28;20026;-94
2022/12/28 09:36:28;;;;;;;9.25;2.95;;;;;;;;;;4975609;28;20073;-93
2022/12/28 09:38:53;;;;;;;10.63;3.47;;;;;;;;;;4993244;28;20445;-94
2022/12/28 09:41:22;;;;;;;8.70;3.17;;;;;;;;;;4973600;28;20038;-94
2022/12/28 09:43:49;;;;;;;9.20;2.72;;;;;;;;;;4993249;28;20101;-94
2022/12/28 09:46:16;;;;;;;9.63;3.05;;;;;;;;;;4980315;28;20030;-93
2022/12/28 09:48:41;;;;;;;7.47;2.30;;;;;;;;;;4994477;28;20737;-93
2022/12/28 09:51:07;;;;;;;17.20;3.10;;;;;;;;;;4977703;28;20107;-95
2022/12/28 09:53:33;;;;;;;5.43;1.77;;;;;;;;;;4995008;28;20052;-94
2022/12/28 09:55:59;;;;;;;7.03;1.40;;;;;;;;;;4981421;28;20054;-94
2022/12/28 09:58:24;;;;;;;6.03;1.33;;;;;;;;;;4995992;28;20069;-94
2022/12/28 10:00:51;;;;;;;5.18;1.30;;;;;;;;;;4978613;28;20076;-94
2022/12/28 10:03:31;;;;;;;6.10;1.27;;;;;;;;;;4977772;28;20158;-94
2022/12/28 10:05:57;;;;;;;4.93;0.98;;;;;;;;;;4997349;28;20501;-94
2022/12/28 10:08:23;;;;;;;4.32;0.95;;;;;;;;;;4994595;28;20038;-94
2022/12/28 10:10:50;;;;;;;5.90;1.10;;;;;;;;;;4981646;28;20034;-94
2022/12/28 10:13:27;;;;;;;3.72;0.80;;;;;;;;;;4976318;28;20030;-93
2022/12/28 10:15:53;;;;;;;4.43;0.98;;;;;;;;;;4975860;28;20031;-93
2022/12/28 10:18:21;;;;;;;4.85;1.02;;;;;;;;;;4997586;28;20014;-94
2022/12/28 10:20:47;;;;;;;3.65;0.82;;;;;;;;;;5000484;28;20037;-93
2022/12/28 10:23:17;;;;;;;3.08;0.82;;;;;;;;;;4998354;28;20132;-93
2022/12/28 10:25:42;;;;;;;4.45;1.10;;;;;;;;;;4994355;28;20129;-93
2022/12/28 10:28:08;;;;;;;4.57;0.80;;;;;;;;;;4985512;28;20116;-94
2022/12/28 10:30:43;;;;;;;5.35;1.08;;;;;;;;;;5001513;28;20030;-92
2022/12/28 10:33:17;;;;;;;3.97;0.80;;;;;;;;;;4991282;28;20021;-93
2022/12/28 10:35:50;;;;;;;5.22;1.08;;;;;;;;;;4998101;28;20148;-93
2022/12/28 10:38:21;;;;;;;3.72;0.75;;;;;;;;;;4978405;28;20030;-92
2022/12/28 10:40:54;;;;;;;4.32;0.98;;;;;;;;;;4980274;28;20058;-93
2022/12/28 10:43:19;;;;;;;4.13;0.97;;;;;;;;;;4980677;28;20030;-92
2022/12/28 10:45:46;;;;;;;4.28;1.10;;;;;;;;;;4976507;28;20036;-94
2022/12/28 10:51:10;;;;;;;4.18;1.15;;;;;;;;;;4994318;28;20022;-92
2022/12/28 10:53:38;;;;;;;4.05;1.02;;;;;;;;;;4996317;28;20028;-92
2022/12/28 10:56:15;;;;;;;5.72;1.23;;;;;;;;;;4976771;28;20026;-93
2022/12/28 10:58:42;;;;;;;4.28;1.08;;;;;;;;;;4995291;28;20120;-93
2022/12/28 11:01:13;;;;;;;4.82;1.10;;;;;;;;;;4977893;28;20026;-94
2022/12/28 11:03:56;;;;;;;3.55;0.93;;;;;;;;;;4997363;28;20046;-93
2022/12/28 11:06:28;;;;;;;5.25;1.25;;;;;;;;;;4981001;28;20027;-93
2022/12/28 11:09:03;;;;;;;3.90;1.00;;;;;;;;;;4980652;28;20073;-94
2022/12/28 11:11:28;;;;;;;4.25;1.02;;;;;;;;;;4981595;28;20032;-93
2022/12/28 11:14:13;;;;;;;3.95;0.90;;;;;;;;;;4979274;28;20021;-93
2022/12/28 11:16:39;;;;;;;15.70;1.92;;;;;;;;;;4996923;28;20027;-92
2022/12/28 11:19:05;;;;;;;5.53;0.90;;;;;;;;;;4997710;28;20066;-93
2022/12/28 11:21:34;;;;;;;3.20;0.80;;;;;;;;;;4991613;28;20113;-93
2022/12/28 11:23:59;;;;;;;2.75;0.70;;;;;;;;;;4971315;28;20122;-93
2022/12/28 11:26:26;;;;;;;4.03;0.98;;;;;;;;;;4974590;28;20109;-93
2022/12/28 11:28:55;;;;;;;3.20;0.73;;;;;;;;;;4994840;28;20054;-93
2022/12/28 11:31:47;;;;;;;8.05;1.00;;;;;;;;;;4978077;28;20152;-93
2022/12/28 11:34:28;;;;;;;2.10;0.60;;;;;;;;;;4983054;28;20155;-93
2022/12/28 11:36:54;;;;;;;4.68;0.70;;;;;;;;;;4985900;28;20065;-94
2022/12/28 11:39:27;;;;;;;2.33;0.60;;;;;;;;;;5000980;28;20033;-94
2022/12/28 11:41:59;;;;;;;2.90;0.63;;;;;;;;;;4998335;28;22072;-92
2022/12/28 11:44:27;;;;;;;2.85;0.70;;;;;;;;;;4985348;28;20033;-95
2022/12/28 11:46:59;;;;;;;2.67;0.70;;;;;;;;;;4985573;28;20054;-93
2022/12/28 11:49:26;;;;;;;20.70;1.80;;;;;;;;;;4985024;28;20037;-93
2022/12/28 11:52:13;;;;;;;2.95;0.65;;;;;;;;;;4987692;28;20026;-94
2022/12/28 11:55:02;;;;;;;2.38;0.57;;;;;;;;;;4980478;28;20034;-93
2022/12/28 11:57:39;;;;;;;4.50;0.90;;;;;;;;;;4971390;28;20034;-93
2022/12/28 12:00:22;;;;;;;2.88;0.80;;;;;;;;;;5004140;28;20470;-93
2022/12/28 12:02:56;;;;;;;4.77;0.80;;;;;;;;;;4988760;28;20061;-94
2022/12/28 12:05:37;;;;;;;6.18;1.08;;;;;;;;;;5001485;28;21431;-93
2022/12/28 12:08:12;;;;;;;3.55;0.75;;;;;;;;;;4994637;28;20076;-94
2022/12/28 12:10:40;;;;;;;7.00;1.00;;;;;;;;;;5004193;28;20021;-93
2022/12/28 12:13:23;;;;;;;6.93;1.10;;;;;;;;;;4999421;28;20025;-94
2022/12/28 12:15:49;;;;;;;;;;;;;;;;;;5020024;28;20024;-93
2022/12/28 12:18:24;;;;;;;5.30;1.05;;;;;;;;;;5001354;28;19923;-93
2022/12/28 12:21:01;;;;;;;4.43;1.10;;;;;;;;;;5025539;28;20060;-93
2022/12/28 12:23:29;;;;;;;3.63;0.80;;;;;;;;;;5020843;28;20033;-93
2022/12/28 12:25:56;;;;;;;4.63;0.82;;;;;;;;;;5025390;28;20088;-93
2022/12/28 12:28:37;;;;;;;7.03;1.00;;;;;;;;;;5005469;28;20034;-94
2022/12/28 12:31:06;;;;;;;3.45;0.88;;;;;;;;;;5020404;28;20048;-94
2022/12/28 12:33:34;;;;;;;6.10;0.80;;;;;;;;;;5007578;28;20022;-93
2022/12/28 12:36:05;;;;;;;3.83;0.77;;;;;;;;;;5006842;28;20068;-93
2022/12/28 12:38:34;;;;;;;3.83;0.85;;;;;;;;;;5008613;28;20040;-93
2022/12/28 12:41:17;;;;;;;3.72;0.85;;;;;;;;;;5032372;28;20044;-92
2022/12/28 12:43:43;;;;;;;7.90;1.05;;;;;;;;;;5030038;28;20044;-92
2022/12/28 12:46:27;;;;;;;3.90;0.77;;;;;;;;;;4996878;28;20026;-92
2022/12/28 12:49:15;;;;;;;6.05;0.85;;;;;;;;;;5001044;28;20061;-96
2022/12/28 12:51:59;;;;;;;4.05;0.90;;;;;;;;;;5032048;28;20552;-92
2022/12/28 12:54:36;;;;;;;3.55;0.75;;;;;;;;;;5031489;28;20033;-92
2022/12/28 12:57:07;;;;;;;2.47;0.57;;;;;;;;;;5006408;28;20025;-94
2022/12/28 12:59:39;;;;;;;3.30;0.70;;;;;;;;;;5022581;23;21212;-92
2022/12/28 13:02:10;;;;;;;4.80;0.77;;;;;;;;;;5020737;28;20404;-91
2022/12/28 13:04:38;;;;;;;3.22;0.70;;;;;;;;;;5006051;28;20096;-93
2022/12/28 13:07:07;;;;;;;3.60;0.70;;;;;;;;;;4995135;28;20081;-94
2022/12/28 13:09:33;;;;;;;3.67;0.70;;;;;;;;;;5002617;28;20108;-94
2022/12/28 13:11:59;;;;;;;2.75;0.70;;;;;;;;;;4987773;28;20133;-96
2022/12/28 13:14:24;;;;;;;3.10;0.80;;;;;;;;;;4994561;28;20021;-93
2022/12/28 13:16:51;;;;;;;2.03;0.65;;;;;;;;;;5004143;28;20375;-94
2022/12/28 13:19:22;;;;;;;3.35;0.60;;;;;;;;;;5001894;28;20056;-94
2022/12/28 13:21:48;;;;;;;2.90;0.70;;;;;;;;;;5011086;28;20033;-94
2022/12/28 13:24:32;;;;;;;2.13;0.60;;;;;;;;;;4988666;28;20029;-95
2022/12/28 13:26:58;;;;;;;3.53;0.70;;;;;;;;;;5008725;28;20026;-93
2022/12/28 13:29:25;;;;;;;4.03;0.80;;;;;;;;;;4988642;28;20065;-94
2022/12/28 13:31:50;;;;;;;2.28;0.70;;;;;;;;;;5007696;28;20029;-93
2022/12/28 13:34:18;;;;;;;6.90;0.88;;;;;;;;;;4989835;28;20025;-92
2022/12/28 13:36:52;;;;;;;4.13;0.93;;;;;;;;;;4982879;28;20026;-93
2022/12/28 13:39:20;;;;;;;2.88;0.70;;;;;;;;;;5007259;28;20030;-92
2022/12/28 13:41:48;;;;;;;3.35;0.73;;;;;;;;;;4987551;28;20033;-92
2022/12/28 13:44:17;;;;;;;3.67;0.68;;;;;;;;;;4981710;28;20034;-95
2022/12/28 13:46:44;;;;;;;3.83;0.80;;;;;;;;;;5013283;28;20200;-94
2022/12/28 13:49:13;;;;;;;2.38;0.70;;;;;;;;;;4988397;28;20022;-92
2022/12/28 13:51:39;;;;;;;2.15;0.50;;;;;;;;;;5003112;28;20045;-94
2022/12/28 13:54:06;;;;;;;1.40;0.40;;;;;;;;;;4988423;28;20137;-94
2022/12/28 13:56:35;;;;;;;2.80;0.63;;;;;;;;;;4984057;28;20018;-94
2022/12/28 13:59:03;;;;;;;1.98;0.60;;;;;;;;;;4984514;28;20025;-93
2022/12/28 14:01:33;;;;;;;3.20;0.65;;;;;;;;;;4981764;28;20045;-94
2022/12/28 14:04:18;;;;;;;2.97;0.65;;;;;;;;;;4985829;28;20643;-92
2022/12/28 14:06:44;;;;;;;2.47;0.70;;;;;;;;;;4997584;28;20097;-93
2022/12/28 14:09:18;;;;;;;2.55;0.60;;;;;;;;;;5003598;28;20133;-91
2022/12/28 14:11:50;;;;;;;1.00;0.40;;;;;;;;;;4993959;28;20029;-96
2022/12/28 14:24:19;;;;;;;1.17;0.50;;;;;;;;;;5034734;23;20165;-94
2022/12/28 14:26:47;;;;;;;1.70;0.50;;;;;;;;;;4972745;28;20018;-94
2022/12/28 14:29:33;;;;;;;2.45;0.68;;;;;;;;;;4983913;28;20050;-93
2022/12/28 14:31:59;;;;;;;4.82;0.63;;;;;;;;;;4981671;28;20035;-94
2022/12/28 14:34:42;;;;;;;2.35;0.55;;;;;;;;;;4987927;28;20026;-93
2022/12/28 14:37:30;;;;;;;2.97;0.73;;;;;;;;;;4973004;28;20015;-92
2022/12/28 14:39:59;;;;;;;3.30;0.73;;;;;;;;;;4977202;28;20066;-92
2022/12/28 14:42:37;;;;;;;3.17;0.70;;;;;;;;;;4998465;28;20033;-92
2022/12/28 14:45:28;;;;;;;3.83;0.70;;;;;;;;;;4972400;28;20486;-91
2022/12/28 14:47:57;;;;;;;3.53;0.93;;;;;;;;;;4982411;28;20038;-94
2022/12/28 14:50:27;;;;;;;3.35;1.00;;;;;;;;;;4973638;28;20091;-92
2022/12/28 14:53:05;;;;;;;3.80;0.90;;;;;;;;;;4983572;28;20037;-91
2022/12/28 14:55:55;;;;;;;2.38;0.80;;;;;;;;;;4982059;28;20022;-92
2022/12/28 14:58:40;;;;;;;3.50;0.77;;;;;;;;;;4951458;28;20065;-92
2022/12/28 15:01:09;;;;;;;3.15;0.80;;;;;;;;;;4959343;28;20038;-93
2022/12/28 15:03:53;;;;;;;4.20;1.00;;;;;;;;;;4969821;28;20113;-92
2022/12/28 15:06:20;;;;;;;2.55;0.70;;;;;;;;;;4985011;28;20034;-92
2022/12/28 15:08:52;;;;;;;2.55;0.70;;;;;;;;;;4966889;28;20484;-91
2022/12/28 15:11:18;;;;;;;1.90;0.67;;;;;;;;;;4972443;28;20498;-92
2022/12/28 15:13:44;;;;;;;1.63;0.50;;;;;;;;;;4970289;28;20035;-92
2022/12/28 15:16:11;;;;;;;2.90;0.80;;;;;;;;;;4985909;28;20029;-92
2022/12/28 15:18:43;;;;;;;3.20;0.82;;;;;;;;;;4989702;28;20120;-91
2022/12/28 15:21:41;;;;;;;1.77;0.63;;;;;;;;;;4972887;28;20025;-92
2022/12/28 15:24:08;;;;;;;1.88;0.47;;;;;;;;;;4984089;28;20045;-92
2022/12/28 15:26:36;;;;;;;3.13;0.60;;;;;;;;;;4990216;28;20026;-92
2022/12/28 15:29:05;;;;;;;3.83;0.73;;;;;;;;;;4991775;28;20044;-92
2022/12/28 15:31:53;;;;;;;2.50;0.50;;;;;;;;;;4995786;28;20105;-92
2022/12/28 15:34:19;;;;;;;5.32;0.65;;;;;;;;;;4986987;28;20084;-91